Time;durP1;ratioP1;P1;durP2;ratioP2;P2;SDS_P1;SDS_P2;PMS_P1;PMS_P2;Temp;Humidity;BMP_temperature;BMP_pressure;BME280_temperature;BME280_humidity;BME280_pressure;Samples;Min_cycle;Max_cycle;Signal;HPM_P1;HPM_P2
2024/01/05 00:01:26;;;;;;;46.87;18.47;;;;;;;;;;4946363;28;20291;-72
2024/01/05 00:03:52;;;;;;;46.47;17.47;;;;;;;;;;4960521;28;20842;-72
2024/01/05 00:06:18;;;;;;;42.03;17.47;;;;;;;;;;4965574;28;20264;-72
2024/01/05 00:08:43;;;;;;;30.67;13.53;;;;;;;;;;4964697;28;20859;-73
2024/01/05 00:11:15;;;;;;;28.40;13.03;;;;;;;;;;4956222;28;20243;-73
2024/01/05 00:13:40;;;;;;;27.00;12.00;;;;;;;;;;4960194;28;21086;-72
2024/01/05 00:16:06;;;;;;;21.90;11.10;;;;;;;;;;4965673;28;20271;-73
2024/01/05 00:18:31;;;;;;;22.27;10.90;;;;;;;;;;4957479;28;20226;-72
2024/01/05 00:20:56;;;;;;;23.53;10.73;;;;;;;;;;4965881;28;20224;-72
2024/01/05 00:23:22;;;;;;;20.47;10.67;;;;;;;;;;4959476;28;20231;-73
2024/01/05 00:25:47;;;;;;;20.73;10.23;;;;;;;;;;4959320;28;20225;-72
2024/01/05 00:28:12;;;;;;;21.87;10.13;;;;;;;;;;4965851;28;20242;-72
2024/01/05 00:30:37;;;;;;;18.00;9.83;;;;;;;;;;4942777;28;20232;-71
2024/01/05 00:33:03;;;;;;;19.37;9.70;;;;;;;;;;4965176;28;20228;-73
2024/01/05 00:35:28;;;;;;;19.87;9.57;;;;;;;;;;4948832;28;20280;-72
2024/01/05 00:37:54;;;;;;;17.43;9.20;;;;;;;;;;4960517;28;20234;-72
2024/01/05 00:40:19;;;;;;;19.37;9.90;;;;;;;;;;4962791;28;20220;-73
2024/01/05 00:42:45;;;;;;;28.03;14.43;;;;;;;;;;4964445;28;20224;-72
2024/01/05 00:45:11;;;;;;;26.60;13.03;;;;;;;;;;4964689;28;20270;-72
2024/01/05 00:47:36;;;;;;;23.83;12.63;;;;;;;;;;4962226;28;20223;-72
2024/01/05 00:50:01;;;;;;;20.70;11.43;;;;;;;;;;4971694;28;20294;-73
2024/01/05 00:52:27;;;;;;;17.73;8.37;;;;;;;;;;4957276;28;20235;-72
2024/01/05 00:54:52;;;;;;;19.00;10.10;;;;;;;;;;4965190;28;20733;-72
2024/01/05 00:57:17;;;;;;;19.70;10.10;;;;;;;;;;4964666;28;20235;-72
2024/01/05 00:59:43;;;;;;;19.20;10.10;;;;;;;;;;4948689;28;20294;-72
2024/01/05 01:02:08;;;;;;;19.43;9.23;;;;;;;;;;4963851;28;20243;-72
2024/01/05 01:04:33;;;;;;;20.80;9.90;;;;;;;;;;4966144;28;20231;-72
2024/01/05 01:06:59;;;;;;;19.17;10.73;;;;;;;;;;4963273;28;20231;-72
2024/01/05 01:09:24;;;;;;;14.97;9.07;;;;;;;;;;4957882;28;20286;-73
2024/01/05 01:11:50;;;;;;;16.03;8.77;;;;;;;;;;4956804;28;20224;-72
2024/01/05 01:14:15;;;;;;;14.57;7.77;;;;;;;;;;4959374;28;20232;-72
2024/01/05 01:16:41;;;;;;;19.30;8.77;;;;;;;;;;4965123;28;20279;-72
2024/01/05 01:19:06;;;;;;;15.20;7.60;;;;;;;;;;4964229;28;20227;-73
2024/01/05 01:21:32;;;;;;;18.87;9.57;;;;;;;;;;4964790;28;20319;-72
2024/01/05 01:23:57;;;;;;;16.17;8.87;;;;;;;;;;4958488;28;20223;-72
2024/01/05 01:26:22;;;;;;;17.63;8.90;;;;;;;;;;4964425;28;20242;-72
2024/01/05 01:28:47;;;;;;;16.67;8.40;;;;;;;;;;4958958;28;20220;-73
2024/01/05 01:31:13;;;;;;;14.53;7.80;;;;;;;;;;4964262;28;20238;-74
2024/01/05 01:33:38;;;;;;;13.20;7.23;;;;;;;;;;4965297;28;20824;-73
2024/01/05 01:36:04;;;;;;;14.10;6.87;;;;;;;;;;4956730;28;20685;-73
2024/01/05 01:38:29;;;;;;;11.63;6.63;;;;;;;;;;4945496;28;20224;-72
2024/01/05 01:40:56;;;;;;;13.27;6.37;;;;;;;;;;4964175;28;20775;-73
2024/01/05 01:43:23;;;;;;;12.67;6.70;;;;;;;;;;4964004;28;20614;-72
2024/01/05 01:45:49;;;;;;;12.57;6.13;;;;;;;;;;4960198;28;20216;-73
2024/01/05 01:48:15;;;;;;;11.03;6.03;;;;;;;;;;4953705;28;20987;-73
2024/01/05 01:50:40;;;;;;;10.40;5.97;;;;;;;;;;4947345;28;20236;-72
2024/01/05 01:53:05;;;;;;;10.67;6.07;;;;;;;;;;4947037;28;20220;-73
2024/01/05 01:55:30;;;;;;;12.60;6.53;;;;;;;;;;4964515;28;20713;-73
2024/01/05 01:57:56;;;;;;;13.70;6.20;;;;;;;;;;4959100;28;20223;-72
2024/01/05 02:00:21;;;;;;;12.03;6.03;;;;;;;;;;4964292;28;20220;-72
2024/01/05 02:02:46;;;;;;;11.97;6.10;;;;;;;;;;4964710;28;20686;-72
2024/01/05 02:05:12;;;;;;;11.23;5.77;;;;;;;;;;4946384;28;20224;-72
2024/01/05 02:07:37;;;;;;;11.67;6.37;;;;;;;;;;4959421;28;20240;-72
2024/01/05 02:10:02;;;;;;;13.03;6.10;;;;;;;;;;4968183;28;20323;-72
2024/01/05 02:12:28;;;;;;;10.73;5.40;;;;;;;;;;4968229;28;20232;-72
2024/01/05 02:14:53;;;;;;;11.97;5.67;;;;;;;;;;4962807;28;20709;-73
2024/01/05 02:17:28;;;;;;;9.97;5.50;;;;;;;;;;4965093;28;20633;-72
2024/01/05 02:19:53;;;;;;;10.60;5.50;;;;;;;;;;4963799;28;20606;-72
2024/01/05 02:22:19;;;;;;;9.97;5.77;;;;;;;;;;4950242;28;20243;-73
2024/01/05 02:24:44;;;;;;;10.73;5.57;;;;;;;;;;4968138;28;20663;-73
2024/01/05 02:27:09;;;;;;;11.83;6.23;;;;;;;;;;4949231;28;20664;-72
2024/01/05 02:29:36;;;;;;;12.93;6.67;;;;;;;;;;4960553;28;20251;-72
2024/01/05 02:32:01;;;;;;;9.97;5.40;;;;;;;;;;4950437;28;20232;-73
2024/01/05 02:34:27;;;;;;;11.20;6.30;;;;;;;;;;4962263;28;20220;-73
2024/01/05 02:36:52;;;;;;;13.47;6.37;;;;;;;;;;4960566;28;20664;-73
2024/01/05 02:39:17;;;;;;;9.87;5.67;;;;;;;;;;4967739;28;20263;-73
2024/01/05 02:41:43;;;;;;;12.07;6.20;;;;;;;;;;4963082;28;20311;-73
2024/01/05 02:44:08;;;;;;;11.83;6.10;;;;;;;;;;4966569;28;20224;-74
2024/01/05 02:46:35;;;;;;;11.53;6.10;;;;;;;;;;4950376;28;20230;-73
2024/01/05 02:49:00;;;;;;;13.73;6.30;;;;;;;;;;4962109;28;20220;-73
2024/01/05 02:51:25;;;;;;;10.80;6.13;;;;;;;;;;4965948;28;20655;-73
2024/01/05 02:53:51;;;;;;;12.47;6.33;;;;;;;;;;4967127;28;20216;-73
2024/01/05 02:56:20;;;;;;;13.43;6.83;;;;;;;;;;4961071;28;20232;-74
2024/01/05 02:58:45;;;;;;;14.20;7.83;;;;;;;;;;4962869;28;20224;-73
2024/01/05 03:01:14;;;;;;;14.73;7.57;;;;;;;;;;4981500;28;20242;-73
2024/01/05 03:03:40;;;;;;;12.83;7.27;;;;;;;;;;4959098;28;20223;-73
2024/01/05 03:06:05;;;;;;;13.03;6.83;;;;;;;;;;4966909;28;20609;-72
2024/01/05 03:08:30;;;;;;;14.63;7.10;;;;;;;;;;4966866;28;20712;-72
2024/01/05 03:10:55;;;;;;;13.50;6.93;;;;;;;;;;4959850;28;20293;-72
2024/01/05 03:13:21;;;;;;;14.20;6.73;;;;;;;;;;4963145;28;20243;-73
2024/01/05 03:15:46;;;;;;;13.50;6.90;;;;;;;;;;4949255;28;20220;-72
2024/01/05 03:18:12;;;;;;;13.33;7.20;;;;;;;;;;4965120;28;20224;-73
2024/01/05 03:20:39;;;;;;;13.37;6.80;;;;;;;;;;4967670;28;20247;-72
2024/01/05 03:23:04;;;;;;;14.90;7.13;;;;;;;;;;4956703;28;20234;-73
2024/01/05 03:25:30;;;;;;;15.87;6.80;;;;;;;;;;4967008;28;20232;-72
2024/01/05 03:27:55;;;;;;;14.30;7.47;;;;;;;;;;4949904;28;20232;-71
2024/01/05 03:30:20;;;;;;;17.43;8.43;;;;;;;;;;4949000;28;20675;-72
2024/01/05 03:32:46;;;;;;;16.33;8.37;;;;;;;;;;4961183;28;20666;-72
2024/01/05 03:35:11;;;;;;;15.40;7.50;;;;;;;;;;4955201;28;20320;-72
2024/01/05 03:37:36;;;;;;;12.17;7.17;;;;;;;;;;4960484;28;20231;-71
2024/01/05 03:40:02;;;;;;;15.60;7.60;;;;;;;;;;4965817;28;20614;-70
2024/01/05 03:42:28;;;;;;;14.80;7.57;;;;;;;;;;4964918;28;20315;-72
2024/01/05 03:44:53;;;;;;;15.40;7.53;;;;;;;;;;4959961;28;20228;-71
2024/01/05 03:47:18;;;;;;;14.57;7.57;;;;;;;;;;4963169;28;20259;-72
2024/01/05 03:49:44;;;;;;;16.07;7.50;;;;;;;;;;4958646;28;22187;-71
2024/01/05 03:52:10;;;;;;;14.93;7.50;;;;;;;;;;4965386;28;20752;-72
2024/01/05 03:54:36;;;;;;;13.97;7.63;;;;;;;;;;4965057;28;20228;-72
2024/01/05 03:57:01;;;;;;;15.87;8.00;;;;;;;;;;4960865;28;20224;-72
2024/01/05 03:59:26;;;;;;;19.40;9.10;;;;;;;;;;4964809;28;20298;-73
2024/01/05 04:01:53;;;;;;;17.23;9.63;;;;;;;;;;4948642;28;20227;-73
2024/01/05 04:04:18;;;;;;;18.30;9.13;;;;;;;;;;4965351;28;20239;-73
2024/01/05 04:06:44;;;;;;;17.27;8.40;;;;;;;;;;4948302;28;20683;-73
2024/01/05 04:09:09;;;;;;;14.77;7.80;;;;;;;;;;4962118;28;20232;-73
2024/01/05 04:11:35;;;;;;;15.00;8.03;;;;;;;;;;4965441;28;20331;-73
2024/01/05 04:14:01;;;;;;;14.37;7.70;;;;;;;;;;4956074;28;20382;-73
2024/01/05 04:16:26;;;;;;;13.97;7.57;;;;;;;;;;4957815;28;20318;-73
2024/01/05 04:18:51;;;;;;;17.30;8.37;;;;;;;;;;4957674;28;20219;-72
2024/01/05 04:21:17;;;;;;;16.27;8.10;;;;;;;;;;4956343;28;20630;-72
2024/01/05 04:23:42;;;;;;;15.90;7.77;;;;;;;;;;4966405;28;20882;-72
2024/01/05 04:26:07;;;;;;;17.00;7.63;;;;;;;;;;4947224;28;20293;-72
2024/01/05 04:28:33;;;;;;;14.33;7.70;;;;;;;;;;4948529;28;20224;-72
2024/01/05 04:30:58;;;;;;;17.70;7.73;;;;;;;;;;4965764;28;20240;-72
2024/01/05 04:33:23;;;;;;;14.93;7.40;;;;;;;;;;4963894;28;20231;-72
2024/01/05 04:35:49;;;;;;;17.97;7.80;;;;;;;;;;4948220;28;20311;-72
2024/01/05 04:38:14;;;;;;;16.90;8.07;;;;;;;;;;4957643;28;20236;-72
2024/01/05 04:40:39;;;;;;;16.60;8.53;;;;;;;;;;4965499;28;20220;-72
2024/01/05 04:43:04;;;;;;;16.83;8.60;;;;;;;;;;4964908;28;20299;-72
2024/01/05 04:45:30;;;;;;;16.33;8.17;;;;;;;;;;4948176;28;20224;-72
2024/01/05 04:47:55;;;;;;;14.77;7.50;;;;;;;;;;4948116;28;20227;-72
2024/01/05 04:50:20;;;;;;;18.73;9.40;;;;;;;;;;4964591;28;20243;-72
2024/01/05 04:52:46;;;;;;;21.60;9.97;;;;;;;;;;4964218;28;20282;-72
2024/01/05 04:55:14;;;;;;;19.83;8.60;;;;;;;;;;4947994;28;20228;-72
2024/01/05 04:57:40;;;;;;;17.10;8.77;;;;;;;;;;4948283;28;20228;-72
2024/01/05 05:00:06;;;;;;;16.80;7.90;;;;;;;;;;4963515;28;21021;-72
2024/01/05 05:02:33;;;;;;;18.00;9.00;;;;;;;;;;4963764;28;20960;-71
2024/01/05 05:04:58;;;;;;;20.80;9.20;;;;;;;;;;4964239;28;20216;-72
2024/01/05 05:07:24;;;;;;;15.43;7.77;;;;;;;;;;4964890;28;20243;-71
2024/01/05 05:09:49;;;;;;;14.00;7.47;;;;;;;;;;4965611;28;20232;-71
2024/01/05 05:12:14;;;;;;;16.10;7.53;;;;;;;;;;4946628;28;20236;-71
2024/01/05 05:14:40;;;;;;;14.33;7.63;;;;;;;;;;4949951;28;20231;-72
2024/01/05 05:17:05;;;;;;;14.80;7.30;;;;;;;;;;4962579;28;20224;-72
2024/01/05 05:19:30;;;;;;;16.07;8.40;;;;;;;;;;4947739;28;20222;-71
2024/01/05 05:21:58;;;;;;;15.80;8.37;;;;;;;;;;4964258;28;20230;-72
2024/01/05 05:24:23;;;;;;;19.67;9.43;;;;;;;;;;4963474;28;20236;-72
2024/01/05 05:26:49;;;;;;;20.70;9.80;;;;;;;;;;4955379;28;20231;-72
2024/01/05 05:29:14;;;;;;;16.67;8.40;;;;;;;;;;4947253;28;20660;-73
2024/01/05 05:31:39;;;;;;;14.87;8.07;;;;;;;;;;4947296;28;20366;-72
2024/01/05 05:34:05;;;;;;;18.00;8.70;;;;;;;;;;4963122;28;20644;-71
2024/01/05 05:36:30;;;;;;;17.33;8.40;;;;;;;;;;4957409;28;20223;-72
2024/01/05 05:38:55;;;;;;;17.70;8.27;;;;;;;;;;4961145;28;20246;-71
2024/01/05 05:41:20;;;;;;;28.03;11.87;;;;;;;;;;4969756;28;20224;-72
2024/01/05 05:43:46;;;;;;;33.83;14.90;;;;;;;;;;4968719;28;20227;-72
2024/01/05 05:46:12;;;;;;;36.20;15.67;;;;;;;;;;4950450;28;20235;-73
2024/01/05 05:48:37;;;;;;;28.70;13.37;;;;;;;;;;4955636;28;20675;-72
2024/01/05 05:51:04;;;;;;;26.77;11.63;;;;;;;;;;4968691;28;20243;-72
2024/01/05 05:53:29;;;;;;;26.37;11.67;;;;;;;;;;4967333;28;20224;-71
2024/01/05 05:55:54;;;;;;;25.60;10.77;;;;;;;;;;4966303;28;20286;-70
2024/01/05 05:58:21;;;;;;;23.67;11.03;;;;;;;;;;4961581;28;20286;-73
2024/01/05 06:00:47;;;;;;;24.10;11.03;;;;;;;;;;4960177;28;20753;-73
2024/01/05 06:03:12;;;;;;;24.17;10.90;;;;;;;;;;4968224;28;20236;-73
2024/01/05 06:05:37;;;;;;;20.47;10.00;;;;;;;;;;4961731;28;20250;-72
2024/01/05 06:08:03;;;;;;;16.50;9.47;;;;;;;;;;4949612;28;20240;-73
2024/01/05 06:10:28;;;;;;;20.63;10.03;;;;;;;;;;4968506;28;20243;-73
2024/01/05 06:12:54;;;;;;;18.33;9.53;;;;;;;;;;4966069;28;20220;-74
2024/01/05 06:15:19;;;;;;;18.07;9.70;;;;;;;;;;4958000;28;20227;-73
2024/01/05 06:17:44;;;;;;;18.13;9.40;;;;;;;;;;4958072;28;20228;-73
2024/01/05 06:20:10;;;;;;;18.60;9.20;;;;;;;;;;4958177;28;20530;-71
2024/01/05 06:22:35;;;;;;;29.80;13.20;;;;;;;;;;4966647;28;20228;-73
2024/01/05 06:25:01;;;;;;;19.57;9.40;;;;;;;;;;4960740;28;20224;-72
2024/01/05 06:27:27;;;;;;;23.80;10.37;;;;;;;;;;4966413;28;20236;-72
2024/01/05 06:29:52;;;;;;;24.33;10.83;;;;;;;;;;4966212;28;20785;-72
2024/01/05 06:32:17;;;;;;;25.80;11.70;;;;;;;;;;4961543;28;20330;-73
2024/01/05 06:34:43;;;;;;;25.03;12.07;;;;;;;;;;4966660;28;20249;-72
2024/01/05 06:37:08;;;;;;;29.83;12.33;;;;;;;;;;4958965;28;20243;-73
2024/01/05 06:39:34;;;;;;;28.27;12.27;;;;;;;;;;4944884;28;20224;-73
2024/01/05 06:41:59;;;;;;;25.07;11.60;;;;;;;;;;4966910;28;20227;-72
2024/01/05 06:44:24;;;;;;;26.53;12.13;;;;;;;;;;4963038;28;20658;-73
2024/01/05 06:46:52;;;;;;;22.80;12.23;;;;;;;;;;4967698;28;20669;-72
2024/01/05 06:49:18;;;;;;;25.87;13.70;;;;;;;;;;4966779;28;20725;-73
2024/01/05 06:51:44;;;;;;;26.80;12.70;;;;;;;;;;4967178;28;20239;-74
2024/01/05 06:54:10;;;;;;;23.37;11.27;;;;;;;;;;4947444;28;20229;-72
2024/01/05 06:56:36;;;;;;;28.90;12.53;;;;;;;;;;4951994;28;20350;-72
2024/01/05 06:59:03;;;;;;;21.53;10.53;;;;;;;;;;4967729;28;20274;-72
2024/01/05 07:01:28;;;;;;;19.57;9.90;;;;;;;;;;4964189;28;20874;-72
2024/01/05 07:03:54;;;;;;;19.30;9.63;;;;;;;;;;4949761;28;20218;-72
2024/01/05 07:06:19;;;;;;;17.30;8.63;;;;;;;;;;4962758;28;20263;-72
2024/01/05 07:08:44;;;;;;;16.60;8.87;;;;;;;;;;4962186;28;20236;-72
2024/01/05 07:11:18;;;;;;;18.50;9.10;;;;;;;;;;4967103;28;20333;-72
2024/01/05 07:13:43;;;;;;;17.40;9.00;;;;;;;;;;4958913;28;20220;-70
2024/01/05 07:16:14;;;;;;;20.83;10.27;;;;;;;;;;4962051;28;20659;-71
2024/01/05 07:18:40;;;;;;;19.10;10.17;;;;;;;;;;4961413;28;20225;-71
2024/01/05 07:21:06;;;;;;;25.73;12.37;;;;;;;;;;4953809;28;20223;-72
2024/01/05 07:23:31;;;;;;;22.20;10.63;;;;;;;;;;4949376;28;20733;-71
2024/01/05 07:25:59;;;;;;;22.73;10.97;;;;;;;;;;4960170;28;20228;-71
2024/01/05 07:28:24;;;;;;;20.37;10.70;;;;;;;;;;4958703;28;20345;-71
2024/01/05 07:30:50;;;;;;;19.97;10.77;;;;;;;;;;4967130;28;20726;-71
2024/01/05 07:33:16;;;;;;;22.70;11.37;;;;;;;;;;4956809;28;20231;-72
2024/01/05 07:35:41;;;;;;;30.33;15.13;;;;;;;;;;4965186;28;20224;-71
2024/01/05 07:38:06;;;;;;;25.83;13.30;;;;;;;;;;4966580;28;20710;-71
2024/01/05 07:40:32;;;;;;;28.33;15.47;;;;;;;;;;4959855;28;20223;-71
2024/01/05 07:42:57;;;;;;;33.03;20.80;;;;;;;;;;4960274;28;20310;-71
2024/01/05 07:45:22;;;;;;;67.03;37.63;;;;;;;;;;4942199;28;20236;-70
2024/01/05 07:47:48;;;;;;;73.07;37.97;;;;;;;;;;4966003;28;20239;-73
2024/01/05 07:50:14;;;;;;;68.17;33.90;;;;;;;;;;4958052;28;20240;-72
2024/01/05 07:52:39;;;;;;;79.07;37.70;;;;;;;;;;4946950;28;20231;-72
2024/01/05 07:55:04;;;;;;;82.20;38.07;;;;;;;;;;4965689;28;20270;-72
2024/01/05 07:57:30;;;;;;;78.40;37.97;;;;;;;;;;4966034;28;20319;-71
2024/01/05 07:59:55;;;;;;;88.73;40.07;;;;;;;;;;4958219;28;20298;-71
2024/01/05 08:02:21;;;;;;;81.83;39.57;;;;;;;;;;4965913;28;20297;-71
2024/01/05 08:04:46;;;;;;;84.50;37.80;;;;;;;;;;4960275;28;20216;-71
2024/01/05 08:07:12;;;;;;;79.53;38.33;;;;;;;;;;4968925;28;21201;-72
2024/01/05 08:09:40;;;;;;;91.60;37.77;;;;;;;;;;4967039;28;20224;-72
2024/01/05 08:12:05;;;;;;;86.73;37.40;;;;;;;;;;4947826;28;20305;-72
2024/01/05 08:14:30;;;;;;;75.67;35.87;;;;;;;;;;4957386;28;20220;-72
2024/01/05 08:16:56;;;;;;;81.37;37.80;;;;;;;;;;4948576;28;20250;-72
2024/01/05 08:19:21;;;;;;;102.97;44.50;;;;;;;;;;4958795;28;20251;-72
2024/01/05 08:21:46;;;;;;;93.30;42.27;;;;;;;;;;4956984;28;20286;-72
2024/01/05 08:24:12;;;;;;;70.97;35.83;;;;;;;;;;4952403;28;20291;-73
2024/01/05 08:26:37;;;;;;;58.33;28.10;;;;;;;;;;4948664;28;20228;-73
2024/01/05 08:29:02;;;;;;;66.43;34.20;;;;;;;;;;4957925;28;20968;-72
2024/01/05 08:31:28;;;;;;;63.83;31.17;;;;;;;;;;4962275;28;20232;-72
2024/01/05 08:33:53;;;;;;;65.37;31.20;;;;;;;;;;4960228;28;20252;-72
2024/01/05 08:36:18;;;;;;;56.40;26.93;;;;;;;;;;4961776;28;20224;-72
2024/01/05 08:38:44;;;;;;;50.47;26.00;;;;;;;;;;4966048;28;20307;-71
2024/01/05 08:41:10;;;;;;;54.67;26.03;;;;;;;;;;4953586;28;20322;-72
2024/01/05 08:43:35;;;;;;;49.47;23.90;;;;;;;;;;4962131;28;20307;-73
2024/01/05 08:46:01;;;;;;;46.33;23.03;;;;;;;;;;4959777;28;20784;-73
2024/01/05 08:48:26;;;;;;;40.70;19.80;;;;;;;;;;4951833;28;20234;-73
2024/01/05 08:50:51;;;;;;;42.60;19.13;;;;;;;;;;4958567;28;20616;-73
2024/01/05 08:53:18;;;;;;;35.03;15.93;;;;;;;;;;4953457;28;20697;-72
2024/01/05 08:55:45;;;;;;;28.17;13.70;;;;;;;;;;4955840;28;20220;-72
2024/01/05 08:58:10;;;;;;;20.47;10.20;;;;;;;;;;4961843;28;20232;-72
2024/01/05 09:00:36;;;;;;;19.20;9.57;;;;;;;;;;4947612;28;20231;-74
2024/01/05 09:03:01;;;;;;;16.00;6.27;;;;;;;;;;4947755;28;20228;-73
2024/01/05 09:05:26;;;;;;;17.90;7.70;;;;;;;;;;4960710;28;20235;-73
2024/01/05 09:07:53;;;;;;;18.03;8.23;;;;;;;;;;4958277;28;20228;-72
2024/01/05 09:10:18;;;;;;;52.37;25.60;;;;;;;;;;4951533;28;20292;-72
2024/01/05 09:12:43;;;;;;;52.77;26.57;;;;;;;;;;4961096;28;20228;-72
2024/01/05 09:15:09;;;;;;;61.03;27.90;;;;;;;;;;4946483;28;20224;-72
2024/01/05 09:17:34;;;;;;;57.60;28.87;;;;;;;;;;4963944;28;20238;-72
2024/01/05 09:20:00;;;;;;;59.53;30.93;;;;;;;;;;4963664;28;20290;-72
2024/01/05 09:22:25;;;;;;;59.33;29.20;;;;;;;;;;4952857;28;20228;-72
2024/01/05 09:24:51;;;;;;;55.87;27.23;;;;;;;;;;4959721;28;20224;-73
2024/01/05 09:27:16;;;;;;;60.03;29.70;;;;;;;;;;4970692;28;20239;-72
2024/01/05 09:29:42;;;;;;;58.53;28.50;;;;;;;;;;4964793;28;20331;-73
2024/01/05 09:32:07;;;;;;;59.90;29.57;;;;;;;;;;4957975;28;20271;-72
2024/01/05 09:34:32;;;;;;;57.53;29.53;;;;;;;;;;4965035;28;20226;-72
2024/01/05 09:36:58;;;;;;;55.73;27.27;;;;;;;;;;4963752;28;20258;-72
2024/01/05 09:39:23;;;;;;;58.60;27.33;;;;;;;;;;4959111;28;20223;-72
2024/01/05 09:41:49;;;;;;;52.43;26.07;;;;;;;;;;4958412;28;20288;-73
2024/01/05 09:44:15;;;;;;;45.27;22.37;;;;;;;;;;4964730;28;20251;-74
2024/01/05 09:46:40;;;;;;;45.07;21.70;;;;;;;;;;4963577;28;20228;-72
2024/01/05 09:49:06;;;;;;;42.73;20.87;;;;;;;;;;4959081;28;20598;-72
2024/01/05 09:51:31;;;;;;;43.70;20.77;;;;;;;;;;4956100;28;20683;-72
2024/01/05 09:53:57;;;;;;;40.63;19.37;;;;;;;;;;4955946;28;20220;-72
2024/01/05 09:56:22;;;;;;;30.77;15.27;;;;;;;;;;4953222;28;20265;-72
2024/01/05 09:58:48;;;;;;;22.30;11.23;;;;;;;;;;4965029;28;20877;-73
2024/01/05 10:01:26;;;;;;;31.70;14.90;;;;;;;;;;4946414;28;20236;-71
2024/01/05 10:03:55;;;;;;;35.07;13.70;;;;;;;;;;4944619;28;20303;-71
2024/01/05 10:06:21;;;;;;;27.80;13.77;;;;;;;;;;4947074;28;20399;-73
2024/01/05 10:08:54;;;;;;;24.97;12.43;;;;;;;;;;4956932;28;20216;-74
2024/01/05 10:11:33;;;;;;;20.10;10.57;;;;;;;;;;4958658;28;20244;-74
2024/01/05 10:14:00;;;;;;;22.83;10.67;;;;;;;;;;4964923;28;20223;-73
2024/01/05 10:16:32;;;;;;;22.60;11.30;;;;;;;;;;4955838;28;20232;-73
2024/01/05 10:19:08;;;;;;;24.30;11.53;;;;;;;;;;4958318;28;20228;-73
2024/01/05 10:21:33;;;;;;;23.37;11.77;;;;;;;;;;4957147;28;20231;-72
2024/01/05 10:23:59;;;;;;;29.93;13.10;;;;;;;;;;4957991;28;20224;-72
2024/01/05 10:26:25;;;;;;;26.83;12.80;;;;;;;;;;4957488;28;20239;-72
2024/01/05 10:28:51;;;;;;;28.77;13.30;;;;;;;;;;4963027;28;20216;-71
2024/01/05 10:31:16;;;;;;;29.37;13.00;;;;;;;;;;4967796;28;20760;-71
2024/01/05 10:33:48;;;;;;;23.10;13.00;;;;;;;;;;4966280;28;20215;-72
2024/01/05 10:36:17;;;;;;;27.60;13.27;;;;;;;;;;4950192;28;20719;-72
2024/01/05 10:38:42;;;;;;;31.33;15.30;;;;;;;;;;4967396;28;20224;-70
2024/01/05 10:41:08;;;;;;;30.67;14.37;;;;;;;;;;4948440;28;20228;-71
2024/01/05 10:43:33;;;;;;;34.07;15.43;;;;;;;;;;4968053;28;20227;-72
2024/01/05 10:45:58;;;;;;;28.23;13.17;;;;;;;;;;4967567;28;20264;-72
2024/01/05 10:48:23;;;;;;;30.40;12.93;;;;;;;;;;4958180;28;20316;-73
2024/01/05 10:50:49;;;;;;;28.00;13.73;;;;;;;;;;4962071;28;20235;-72
2024/01/05 10:53:14;;;;;;;31.13;13.03;;;;;;;;;;4960366;28;20235;-72
2024/01/05 10:55:40;;;;;;;26.80;12.30;;;;;;;;;;4960495;28;20228;-72
2024/01/05 10:58:06;;;;;;;29.07;12.87;;;;;;;;;;4962056;28;20232;-72
2024/01/05 11:00:32;;;;;;;25.20;11.87;;;;;;;;;;4960147;28;20224;-72
2024/01/05 11:03:18;;;;;;;19.90;10.47;;;;;;;;;;4967305;28;20275;-73
2024/01/05 11:05:43;;;;;;;22.30;9.70;;;;;;;;;;4965004;28;20825;-72
2024/01/05 11:08:29;;;;;;;19.93;7.47;;;;;;;;;;4958897;28;20235;-73
2024/01/05 11:11:01;;;;;;;16.00;6.47;;;;;;;;;;4966296;28;20246;-72
2024/01/05 11:13:35;;;;;;;15.90;6.30;;;;;;;;;;4959492;28;20228;-71
2024/01/05 11:16:07;;;;;;;15.97;6.07;;;;;;;;;;4967545;28;20238;-72
2024/01/05 11:18:35;;;;;;;15.53;5.40;;;;;;;;;;4944323;28;20220;-72
2024/01/05 11:21:20;;;;;;;15.07;5.90;;;;;;;;;;4966223;28;20290;-72
2024/01/05 11:23:45;;;;;;;19.53;5.67;;;;;;;;;;4949830;28;20611;-72
2024/01/05 11:26:30;;;;;;;16.30;5.87;;;;;;;;;;4966640;28;20224;-72
2024/01/05 11:28:55;;;;;;;14.00;6.20;;;;;;;;;;4963225;28;20224;-72
2024/01/05 11:31:39;;;;;;;15.40;5.90;;;;;;;;;;4954451;28;20255;-72
2024/01/05 11:34:04;;;;;;;14.83;5.73;;;;;;;;;;4980761;28;20228;-72
2024/01/05 11:36:52;;;;;;;15.53;5.30;;;;;;;;;;4966850;28;20282;-72
2024/01/05 11:39:36;;;;;;;14.20;6.17;;;;;;;;;;4963784;28;20220;-72
2024/01/05 11:42:01;;;;;;;14.17;6.00;;;;;;;;;;4966890;28;20310;-72
2024/01/05 11:44:33;;;;;;;17.30;6.43;;;;;;;;;;4958248;28;20335;-72
2024/01/05 11:47:01;;;;;;;15.20;6.73;;;;;;;;;;4946016;28;20236;-72
2024/01/05 11:49:45;;;;;;;18.53;6.93;;;;;;;;;;4964689;28;20224;-72
2024/01/05 11:52:10;;;;;;;18.27;6.63;;;;;;;;;;4946678;28;20237;-73
2024/01/05 11:54:36;;;;;;;19.13;7.00;;;;;;;;;;4965797;28;20211;-72
2024/01/05 11:57:01;;;;;;;14.97;6.60;;;;;;;;;;4964049;28;20750;-72
2024/01/05 11:59:27;;;;;;;14.83;5.53;;;;;;;;;;4957696;28;20251;-73
2024/01/05 12:01:55;;;;;;;13.03;5.00;;;;;;;;;;4948725;28;20223;-72
2024/01/05 12:04:20;;;;;;;16.20;5.90;;;;;;;;;;4948293;28;20228;-72
2024/01/05 12:06:52;;;;;;;20.00;6.10;;;;;;;;;;4948385;28;20243;-72
2024/01/05 12:09:18;;;;;;;16.63;5.53;;;;;;;;;;4944059;28;20235;-72
2024/01/05 12:11:44;;;;;;;15.03;4.90;;;;;;;;;;4964357;28;20255;-72
2024/01/05 12:14:09;;;;;;;15.17;5.00;;;;;;;;;;4963785;28;20252;-72
2024/01/05 12:16:34;;;;;;;10.80;4.30;;;;;;;;;;4948447;28;20228;-71
2024/01/05 12:19:00;;;;;;;13.83;4.83;;;;;;;;;;4959385;28;20631;-72
2024/01/05 12:21:25;;;;;;;12.40;4.30;;;;;;;;;;4964972;28;20232;-72
2024/01/05 12:23:54;;;;;;;11.83;4.50;;;;;;;;;;4957457;28;20227;-72
2024/01/05 12:26:20;;;;;;;14.60;3.70;;;;;;;;;;4956685;28;20245;-73
2024/01/05 12:28:46;;;;;;;15.20;3.80;;;;;;;;;;4956425;28;20721;-72
2024/01/05 12:31:11;;;;;;;13.80;3.87;;;;;;;;;;4957103;28;20232;-72
2024/01/05 12:33:37;;;;;;;13.80;3.63;;;;;;;;;;4964779;28;20785;-73
2024/01/05 12:36:04;;;;;;;10.17;3.67;;;;;;;;;;4964447;28;20306;-73
2024/01/05 12:38:29;;;;;;;11.47;3.70;;;;;;;;;;4960108;28;20231;-73
2024/01/05 12:41:04;;;;;;;12.27;3.97;;;;;;;;;;4962015;28;20227;-71
2024/01/05 12:43:34;;;;;;;9.70;3.60;;;;;;;;;;4965486;28;20946;-71
2024/01/05 12:46:00;;;;;;;9.10;3.60;;;;;;;;;;4942326;28;20216;-73
2024/01/05 12:48:26;;;;;;;8.97;3.40;;;;;;;;;;4959702;28;20231;-72
2024/01/05 12:51:02;;;;;;;12.07;3.83;;;;;;;;;;4947194;28;20235;-72
2024/01/05 12:53:27;;;;;;;10.17;3.50;;;;;;;;;;4958801;28;20286;-73
2024/01/05 12:55:52;;;;;;;8.77;3.67;;;;;;;;;;4948606;28;20220;-72
2024/01/05 12:58:18;;;;;;;12.20;3.80;;;;;;;;;;4963819;28;20232;-72
2024/01/05 13:00:44;;;;;;;14.43;3.80;;;;;;;;;;4947576;28;20238;-72
2024/01/05 13:03:18;;;;;;;11.37;3.67;;;;;;;;;;4965253;28;20644;-74
2024/01/05 13:05:44;;;;;;;11.13;3.77;;;;;;;;;;4955991;28;20306;-73
2024/01/05 13:08:09;;;;;;;13.03;3.80;;;;;;;;;;4961040;28;20890;-73
2024/01/05 13:10:35;;;;;;;15.73;3.80;;;;;;;;;;4956822;28;20228;-74
2024/01/05 13:13:00;;;;;;;11.27;3.87;;;;;;;;;;4964857;28;20607;-74
2024/01/05 13:15:25;;;;;;;15.27;4.30;;;;;;;;;;4946659;28;20244;-74
2024/01/05 13:17:51;;;;;;;15.10;4.40;;;;;;;;;;4964205;28;20603;-74
2024/01/05 13:20:18;;;;;;;11.17;3.93;;;;;;;;;;4947358;28;20623;-74
2024/01/05 13:22:44;;;;;;;15.67;4.40;;;;;;;;;;4959519;28;20223;-73
2024/01/05 13:25:11;;;;;;;11.73;3.97;;;;;;;;;;4947357;28;20776;-74
2024/01/05 13:27:38;;;;;;;10.33;3.70;;;;;;;;;;4963671;28;20706;-73
2024/01/05 13:30:05;;;;;;;14.83;3.63;;;;;;;;;;4946458;28;20211;-73
2024/01/05 13:32:31;;;;;;;10.20;3.40;;;;;;;;;;4957430;28;20232;-73
2024/01/05 13:34:56;;;;;;;11.77;3.50;;;;;;;;;;4947539;28;20224;-73
2024/01/05 13:37:24;;;;;;;11.77;3.33;;;;;;;;;;4956715;28;20323;-73
2024/01/05 13:39:49;;;;;;;11.20;3.33;;;;;;;;;;4947911;28;20736;-73
2024/01/05 13:42:15;;;;;;;12.47;3.47;;;;;;;;;;4957021;28;20302;-74
2024/01/05 13:44:40;;;;;;;12.27;3.77;;;;;;;;;;4964527;28;20251;-73
2024/01/05 13:47:05;;;;;;;11.77;3.77;;;;;;;;;;4965014;28;20235;-74
2024/01/05 13:49:32;;;;;;;16.27;4.83;;;;;;;;;;4961536;28;20254;-73
2024/01/05 13:51:57;;;;;;;14.33;5.30;;;;;;;;;;4959206;28;20235;-74
2024/01/05 13:54:23;;;;;;;16.73;5.60;;;;;;;;;;4964592;28;20647;-73
2024/01/05 13:56:48;;;;;;;14.97;5.90;;;;;;;;;;4954418;28;20220;-73
2024/01/05 13:59:14;;;;;;;17.53;6.00;;;;;;;;;;4955549;28;20231;-73
2024/01/05 14:01:42;;;;;;;16.97;6.27;;;;;;;;;;4962384;28;20254;-74
2024/01/05 14:04:07;;;;;;;18.87;6.77;;;;;;;;;;4963851;28;20224;-74
2024/01/05 14:06:33;;;;;;;16.57;6.43;;;;;;;;;;4951189;28;20326;-73
2024/01/05 14:08:58;;;;;;;17.97;6.53;;;;;;;;;;4960625;28;20260;-74
2024/01/05 14:11:23;;;;;;;18.17;6.40;;;;;;;;;;4961551;28;20323;-74
2024/01/05 14:13:50;;;;;;;15.40;6.23;;;;;;;;;;4967430;28;20242;-72
2024/01/05 14:16:16;;;;;;;15.20;5.90;;;;;;;;;;4967854;28;20227;-72
2024/01/05 14:18:41;;;;;;;17.07;6.30;;;;;;;;;;4960732;28;20228;-73
2024/01/05 14:21:06;;;;;;;19.30;6.67;;;;;;;;;;4962001;28;20222;-73